sensor_id;sensor_type;location;lat;lon;timestamp;temperature;humidity
16076;DHT22;8142;48.242;11.644;2023-10-31T00:01:54;12.00;99.90
16076;DHT22;8142;48.242;11.644;2023-10-31T00:04:21;11.90;99.90
16076;DHT22;8142;48.242;11.644;2023-10-31T00:06:49;11.90;99.90
16076;DHT22;8142;48.242;11.644;2023-10-31T00:09:16;11.90;99.90
16076;DHT22;8142;48.242;11.644;2023-10-31T00:11:42;11.90;99.90
16076;DHT22;8142;48.242;11.644;2023-10-31T00:14:09;11.90;99.90
16076;DHT22;8142;48.242;11.644;2023-10-31T00:16:35;11.90;99.90
16076;DHT22;8142;48.242;11.644;2023-10-31T00:19:01;11.90;99.90
16076;DHT22;8142;48.242;11.644;2023-10-31T00:21:27;11.80;99.90
16076;DHT22;8142;48.242;11.644;2023-10-31T00:23:53;11.80;99.90
16076;DHT22;8142;48.242;11.644;2023-10-31T00:26:19;11.80;99.90
16076;DHT22;8142;48.242;11.644;2023-10-31T00:28:45;11.80;99.90
16076;DHT22;8142;48.242;11.644;2023-10-31T00:31:12;11.80;99.90
16076;DHT22;8142;48.242;11.644;2023-10-31T00:33:40;11.80;99.90
16076;DHT22;8142;48.242;11.644;2023-10-31T00:36:07;11.80;99.90
16076;DHT22;8142;48.242;11.644;2023-10-31T00:38:33;11.70;99.90
16076;DHT22;8142;48.242;11.644;2023-10-31T00:40:59;11.80;99.90
16076;DHT22;8142;48.242;11.644;2023-10-31T00:43:25;11.80;99.90
16076;DHT22;8142;48.242;11.644;2023-10-31T00:45:51;11.80;99.90
16076;DHT22;8142;48.242;11.644;2023-10-31T00:48:17;11.70;99.90
16076;DHT22;8142;48.242;11.644;2023-10-31T00:50:43;11.70;99.90
16076;DHT22;8142;48.242;11.644;2023-10-31T00:53:10;11.70;99.90
16076;DHT22;8142;48.242;11.644;2023-10-31T00:55:37;11.70;99.90
16076;DHT22;8142;48.242;11.644;2023-10-31T00:58:03;11.70;99.90
16076;DHT22;8142;48.242;11.644;2023-10-31T01:00:29;11.60;99.90
16076;DHT22;8142;48.242;11.644;2023-10-31T01:02:55;11.80;99.90
16076;DHT22;8142;48.242;11.644;2023-10-31T01:05:21;11.60;99.90
16076;DHT22;8142;48.242;11.644;2023-10-31T01:07:47;11.60;99.90
16076;DHT22;8142;48.242;11.644;2023-10-31T01:10:13;11.60;99.90
16076;DHT22;8142;48.242;11.644;2023-10-31T01:12:39;11.60;99.90
16076;DHT22;8142;48.242;11.644;2023-10-31T01:15:05;11.50;99.90
16076;DHT22;8142;48.242;11.644;2023-10-31T01:17:35;11.60;99.90
16076;DHT22;8142;48.242;11.644;2023-10-31T01:20:03;11.60;99.90
16076;DHT22;8142;48.242;11.644;2023-10-31T01:22:31;11.60;99.90
16076;DHT22;8142;48.242;11.644;2023-10-31T01:24:57;11.60;99.90
16076;DHT22;8142;48.242;11.644;2023-10-31T01:27:23;11.60;99.90
16076;DHT22;8142;48.242;11.644;2023-10-31T01:29:49;11.60;99.90
16076;DHT22;8142;48.242;11.644;2023-10-31T01:32:15;11.60;99.90
16076;DHT22;8142;48.242;11.644;2023-10-31T01:34:41;11.60;99.90
16076;DHT22;8142;48.242;11.644;2023-10-31T01:37:06;11.50;99.90
16076;DHT22;8142;48.242;11.644;2023-10-31T01:39:32;11.50;99.90
16076;DHT22;8142;48.242;11.644;2023-10-31T01:41:58;11.40;99.90
16076;DHT22;8142;48.242;11.644;2023-10-31T01:44:25;11.50;99.90
16076;DHT22;8142;48.242;11.644;2023-10-31T01:46:51;11.50;99.90
16076;DHT22;8142;48.242;11.644;2023-10-31T01:49:17;11.50;99.90
16076;DHT22;8142;48.242;11.644;2023-10-31T01:51:44;11.40;99.90
16076;DHT22;8142;48.242;11.644;2023-10-31T01:54:11;11.40;99.90
16076;DHT22;8142;48.242;11.644;2023-10-31T01:56:38;11.50;99.90
16076;DHT22;8142;48.242;11.644;2023-10-31T01:59:05;11.50;99.90
16076;DHT22;8142;48.242;11.644;2023-10-31T02:01:32;11.50;99.90
16076;DHT22;8142;48.242;11.644;2023-10-31T02:04:01;11.40;99.90
16076;DHT22;8142;48.242;11.644;2023-10-31T02:06:28;11.40;99.90
16076;DHT22;8142;48.242;11.644;2023-10-31T02:08:56;11.40;99.90
16076;DHT22;8142;48.242;11.644;2023-10-31T02:11:22;11.50;99.90
16076;DHT22;8142;48.242;11.644;2023-10-31T02:13:48;11.40;99.90
16076;DHT22;8142;48.242;11.644;2023-10-31T02:16:13;11.50;99.90
16076;DHT22;8142;48.242;11.644;2023-10-31T02:18:39;11.50;99.90
16076;DHT22;8142;48.242;11.644;2023-10-31T02:21:05;11.50;99.90
16076;DHT22;8142;48.242;11.644;2023-10-31T02:23:31;11.50;99.90
16076;DHT22;8142;48.242;11.644;2023-10-31T02:25:57;11.50;99.90
16076;DHT22;8142;48.242;11.644;2023-10-31T02:28:23;11.50;99.90
16076;DHT22;8142;48.242;11.644;2023-10-31T02:30:53;11.50;99.90
16076;DHT22;8142;48.242;11.644;2023-10-31T02:33:20;11.50;99.90
16076;DHT22;8142;48.242;11.644;2023-10-31T02:35:46;11.40;99.90
16076;DHT22;8142;48.242;11.644;2023-10-31T02:38:12;11.40;99.90
16076;DHT22;8142;48.242;11.644;2023-10-31T02:40:38;11.50;99.90
16076;DHT22;8142;48.242;11.644;2023-10-31T02:43:04;11.50;99.90
16076;DHT22;8142;48.242;11.644;2023-10-31T02:45:30;11.40;99.90
16076;DHT22;8142;48.242;11.644;2023-10-31T02:47:56;11.40;99.90
16076;DHT22;8142;48.242;11.644;2023-10-31T02:50:22;11.40;99.90
16076;DHT22;8142;48.242;11.644;2023-10-31T02:52:48;11.40;99.90
16076;DHT22;8142;48.242;11.644;2023-10-31T02:55:14;11.40;99.90
16076;DHT22;8142;48.242;11.644;2023-10-31T02:57:39;11.40;99.90
16076;DHT22;8142;48.242;11.644;2023-10-31T03:00:06;11.40;99.90
16076;DHT22;8142;48.242;11.644;2023-10-31T03:02:33;11.40;99.90
16076;DHT22;8142;48.242;11.644;2023-10-31T03:04:59;11.40;99.90
16076;DHT22;8142;48.242;11.644;2023-10-31T03:07:25;11.40;99.90
16076;DHT22;8142;48.242;11.644;2023-10-31T03:09:51;11.40;99.90
16076;DHT22;8142;48.242;11.644;2023-10-31T03:12:17;11.30;99.90
16076;DHT22;8142;48.242;11.644;2023-10-31T03:14:43;11.30;99.90
16076;DHT22;8142;48.242;11.644;2023-10-31T03:17:08;11.30;99.90
16076;DHT22;8142;48.242;11.644;2023-10-31T03:19:34;11.40;99.90
16076;DHT22;8142;48.242;11.644;2023-10-31T03:22:00;11.30;99.90
16076;DHT22;8142;48.242;11.644;2023-10-31T03:24:26;11.30;99.90
16076;DHT22;8142;48.242;11.644;2023-10-31T03:26:52;11.30;99.90
16076;DHT22;8142;48.242;11.644;2023-10-31T03:29:18;11.30;99.90
16076;DHT22;8142;48.242;11.644;2023-10-31T03:31:44;11.30;99.90
16076;DHT22;8142;48.242;11.644;2023-10-31T03:34:10;11.40;99.90
16076;DHT22;8142;48.242;11.644;2023-10-31T03:36:36;11.30;99.90
16076;DHT22;8142;48.242;11.644;2023-10-31T03:39:02;11.30;99.90
16076;DHT22;8142;48.242;11.644;2023-10-31T03:41:28;11.40;99.90
16076;DHT22;8142;48.242;11.644;2023-10-31T03:43:54;11.30;99.90
16076;DHT22;8142;48.242;11.644;2023-10-31T03:46:20;11.30;99.90
16076;DHT22;8142;48.242;11.644;2023-10-31T03:48:46;11.30;99.90
16076;DHT22;8142;48.242;11.644;2023-10-31T03:51:12;11.30;99.90
16076;DHT22;8142;48.242;11.644;2023-10-31T03:53:38;11.30;99.90
16076;DHT22;8142;48.242;11.644;2023-10-31T03:56:04;11.30;99.90
16076;DHT22;8142;48.242;11.644;2023-10-31T03:58:30;11.30;99.90
16076;DHT22;8142;48.242;11.644;2023-10-31T04:00:56;11.30;99.90
16076;DHT22;8142;48.242;11.644;2023-10-31T04:03:21;11.30;99.90
16076;DHT22;8142;48.242;11.644;2023-10-31T04:05:47;11.20;99.90
16076;DHT22;8142;48.242;11.644;2023-10-31T04:08:13;11.10;99.90
16076;DHT22;8142;48.242;11.644;2023-10-31T04:10:39;11.10;99.90
16076;DHT22;8142;48.242;11.644;2023-10-31T04:13:05;11.00;99.90
16076;DHT22;8142;48.242;11.644;2023-10-31T04:15:31;10.90;99.90
16076;DHT22;8142;48.242;11.644;2023-10-31T04:17:56;10.70;99.90
16076;DHT22;8142;48.242;11.644;2023-10-31T04:20:22;10.70;99.90
16076;DHT22;8142;48.242;11.644;2023-10-31T04:22:48;10.60;99.90
16076;DHT22;8142;48.242;11.644;2023-10-31T04:25:14;10.50;99.90
16076;DHT22;8142;48.242;11.644;2023-10-31T04:27:40;10.40;99.90
16076;DHT22;8142;48.242;11.644;2023-10-31T04:30:06;10.30;99.90
16076;DHT22;8142;48.242;11.644;2023-10-31T04:32:33;10.30;99.90
16076;DHT22;8142;48.242;11.644;2023-10-31T04:34:59;10.20;99.90
16076;DHT22;8142;48.242;11.644;2023-10-31T04:37:24;10.20;99.90
16076;DHT22;8142;48.242;11.644;2023-10-31T04:39:51;10.20;99.90
16076;DHT22;8142;48.242;11.644;2023-10-31T04:42:16;10.10;99.90
16076;DHT22;8142;48.242;11.644;2023-10-31T04:44:43;10.10;99.90
16076;DHT22;8142;48.242;11.644;2023-10-31T04:47:09;10.00;99.90
16076;DHT22;8142;48.242;11.644;2023-10-31T04:49:35;10.00;99.90
16076;DHT22;8142;48.242;11.644;2023-10-31T04:52:01;10.00;99.90
16076;DHT22;8142;48.242;11.644;2023-10-31T04:54:27;10.00;99.90
16076;DHT22;8142;48.242;11.644;2023-10-31T04:56:53;10.10;99.90
16076;DHT22;8142;48.242;11.644;2023-10-31T04:59:19;10.10;99.90
16076;DHT22;8142;48.242;11.644;2023-10-31T05:01:49;10.20;99.90
16076;DHT22;8142;48.242;11.644;2023-10-31T05:04:15;10.30;99.90
16076;DHT22;8142;48.242;11.644;2023-10-31T05:06:41;10.30;99.90
16076;DHT22;8142;48.242;11.644;2023-10-31T05:09:07;10.40;99.90
16076;DHT22;8142;48.242;11.644;2023-10-31T05:11:33;10.50;99.90
16076;DHT22;8142;48.242;11.644;2023-10-31T05:13:59;10.50;99.90
16076;DHT22;8142;48.242;11.644;2023-10-31T05:16:25;10.60;99.90
16076;DHT22;8142;48.242;11.644;2023-10-31T05:18:51;10.60;99.90
16076;DHT22;8142;48.242;11.644;2023-10-31T05:21:20;10.60;99.90
16076;DHT22;8142;48.242;11.644;2023-10-31T05:23:46;10.70;99.90
16076;DHT22;8142;48.242;11.644;2023-10-31T05:26:12;10.70;99.90
16076;DHT22;8142;48.242;11.644;2023-10-31T05:28:38;10.80;99.90
16076;DHT22;8142;48.242;11.644;2023-10-31T05:31:04;10.80;99.90
16076;DHT22;8142;48.242;11.644;2023-10-31T05:33:30;10.80;99.90
16076;DHT22;8142;48.242;11.644;2023-10-31T05:35:55;10.90;99.90
16076;DHT22;8142;48.242;11.644;2023-10-31T05:38:21;10.90;99.90
16076;DHT22;8142;48.242;11.644;2023-10-31T05:40:47;10.90;99.90
16076;DHT22;8142;48.242;11.644;2023-10-31T05:43:13;11.00;99.90
16076;DHT22;8142;48.242;11.644;2023-10-31T05:45:39;11.00;99.90
16076;DHT22;8142;48.242;11.644;2023-10-31T05:48:05;11.00;99.90
16076;DHT22;8142;48.242;11.644;2023-10-31T05:50:31;11.00;99.90
16076;DHT22;8142;48.242;11.644;2023-10-31T05:52:57;11.00;99.90
16076;DHT22;8142;48.242;11.644;2023-10-31T05:55:23;11.00;99.90
16076;DHT22;8142;48.242;11.644;2023-10-31T05:57:48;11.10;99.90
16076;DHT22;8142;48.242;11.644;2023-10-31T06:00:15;11.10;99.90
16076;DHT22;8142;48.242;11.644;2023-10-31T06:02:40;11.00;99.90
16076;DHT22;8142;48.242;11.644;2023-10-31T06:05:07;11.10;99.90
16076;DHT22;8142;48.242;11.644;2023-10-31T06:07:33;11.10;99.90
16076;DHT22;8142;48.242;11.644;2023-10-31T06:09:59;11.00;99.90
16076;DHT22;8142;48.242;11.644;2023-10-31T06:12:24;11.10;99.90
16076;DHT22;8142;48.242;11.644;2023-10-31T06:14:50;11.10;99.90
16076;DHT22;8142;48.242;11.644;2023-10-31T06:17:16;11.10;99.90
16076;DHT22;8142;48.242;11.644;2023-10-31T06:19:42;11.10;99.90
16076;DHT22;8142;48.242;11.644;2023-10-31T06:22:12;11.20;99.90
16076;DHT22;8142;48.242;11.644;2023-10-31T06:24:38;11.10;99.90
16076;DHT22;8142;48.242;11.644;2023-10-31T06:27:04;11.10;99.90
16076;DHT22;8142;48.242;11.644;2023-10-31T06:29:29;11.10;99.90
16076;DHT22;8142;48.242;11.644;2023-10-31T06:31:55;11.10;99.90
16076;DHT22;8142;48.242;11.644;2023-10-31T06:34:21;11.10;99.90
16076;DHT22;8142;48.242;11.644;2023-10-31T06:36:47;11.10;99.90
16076;DHT22;8142;48.242;11.644;2023-10-31T06:39:13;11.10;99.90
16076;DHT22;8142;48.242;11.644;2023-10-31T06:41:39;11.10;99.90
16076;DHT22;8142;48.242;11.644;2023-10-31T06:44:04;11.10;99.90
16076;DHT22;8142;48.242;11.644;2023-10-31T06:46:30;11.20;99.90
16076;DHT22;8142;48.242;11.644;2023-10-31T06:48:59;11.20;99.90
16076;DHT22;8142;48.242;11.644;2023-10-31T06:51:25;11.20;99.90
16076;DHT22;8142;48.242;11.644;2023-10-31T06:53:51;11.20;99.90
16076;DHT22;8142;48.242;11.644;2023-10-31T06:56:17;11.10;99.90
16076;DHT22;8142;48.242;11.644;2023-10-31T06:58:43;11.20;99.90
16076;DHT22;8142;48.242;11.644;2023-10-31T07:01:09;11.20;99.90
16076;DHT22;8142;48.242;11.644;2023-10-31T07:03:35;11.10;99.90
16076;DHT22;8142;48.242;11.644;2023-10-31T07:06:00;11.10;99.90
16076;DHT22;8142;48.242;11.644;2023-10-31T07:08:26;11.00;99.90
16076;DHT22;8142;48.242;11.644;2023-10-31T07:10:52;10.90;99.90
16076;DHT22;8142;48.242;11.644;2023-10-31T07:13:18;10.80;99.90
16076;DHT22;8142;48.242;11.644;2023-10-31T07:15:44;10.70;99.90
16076;DHT22;8142;48.242;11.644;2023-10-31T07:18:10;10.60;99.90
16076;DHT22;8142;48.242;11.644;2023-10-31T07:20:36;10.50;99.90
16076;DHT22;8142;48.242;11.644;2023-10-31T07:23:02;10.60;99.90
16076;DHT22;8142;48.242;11.644;2023-10-31T07:25:28;10.40;99.90
16076;DHT22;8142;48.242;11.644;2023-10-31T07:27:54;10.40;99.90
16076;DHT22;8142;48.242;11.644;2023-10-31T07:30:20;10.30;99.90
16076;DHT22;8142;48.242;11.644;2023-10-31T07:32:45;10.30;99.90
16076;DHT22;8142;48.242;11.644;2023-10-31T07:35:11;10.30;99.90
16076;DHT22;8142;48.242;11.644;2023-10-31T07:37:37;10.40;99.90
16076;DHT22;8142;48.242;11.644;2023-10-31T07:40:03;10.40;99.90
16076;DHT22;8142;48.242;11.644;2023-10-31T07:42:30;10.50;99.90
16076;DHT22;8142;48.242;11.644;2023-10-31T07:44:57;10.50;99.90
16076;DHT22;8142;48.242;11.644;2023-10-31T07:47:22;10.60;99.90
16076;DHT22;8142;48.242;11.644;2023-10-31T07:49:48;10.60;99.90
16076;DHT22;8142;48.242;11.644;2023-10-31T07:52:15;10.70;99.90
16076;DHT22;8142;48.242;11.644;2023-10-31T07:54:40;10.80;99.90
16076;DHT22;8142;48.242;11.644;2023-10-31T07:57:07;10.80;99.90
16076;DHT22;8142;48.242;11.644;2023-10-31T07:59:34;10.90;99.90
16076;DHT22;8142;48.242;11.644;2023-10-31T08:02:00;11.00;99.90
16076;DHT22;8142;48.242;11.644;2023-10-31T08:04:26;11.00;99.90
16076;DHT22;8142;48.242;11.644;2023-10-31T08:06:53;11.00;99.90
16076;DHT22;8142;48.242;11.644;2023-10-31T08:09:19;11.10;99.90
16076;DHT22;8142;48.242;11.644;2023-10-31T08:11:45;11.00;99.90
16076;DHT22;8142;48.242;11.644;2023-10-31T08:14:11;11.10;99.90
16076;DHT22;8142;48.242;11.644;2023-10-31T08:16:37;11.20;99.90
16076;DHT22;8142;48.242;11.644;2023-10-31T08:19:03;11.20;99.90
16076;DHT22;8142;48.242;11.644;2023-10-31T08:21:29;11.10;99.90
16076;DHT22;8142;48.242;11.644;2023-10-31T08:24:02;11.10;99.90
16076;DHT22;8142;48.242;11.644;2023-10-31T08:26:30;11.20;99.90
16076;DHT22;8142;48.242;11.644;2023-10-31T08:28:56;11.10;99.90
16076;DHT22;8142;48.242;11.644;2023-10-31T08:31:22;11.20;99.90
16076;DHT22;8142;48.242;11.644;2023-10-31T08:33:48;11.20;99.90
16076;DHT22;8142;48.242;11.644;2023-10-31T08:36:14;11.20;99.90
16076;DHT22;8142;48.242;11.644;2023-10-31T08:38:40;11.10;99.90
16076;DHT22;8142;48.242;11.644;2023-10-31T08:41:06;11.20;99.90
16076;DHT22;8142;48.242;11.644;2023-10-31T08:43:32;11.10;99.90
16076;DHT22;8142;48.242;11.644;2023-10-31T08:45:58;11.30;99.90
16076;DHT22;8142;48.242;11.644;2023-10-31T08:48:24;11.20;99.90
16076;DHT22;8142;48.242;11.644;2023-10-31T08:50:50;11.20;99.90
16076;DHT22;8142;48.242;11.644;2023-10-31T08:53:16;11.40;99.90
16076;DHT22;8142;48.242;11.644;2023-10-31T08:55:42;11.20;99.90
16076;DHT22;8142;48.242;11.644;2023-10-31T08:58:11;11.30;99.90
16076;DHT22;8142;48.242;11.644;2023-10-31T09:00:38;11.30;99.90
16076;DHT22;8142;48.242;11.644;2023-10-31T09:03:05;11.40;99.90
16076;DHT22;8142;48.242;11.644;2023-10-31T09:05:31;11.20;99.90
16076;DHT22;8142;48.242;11.644;2023-10-31T09:07:57;11.30;99.90
16076;DHT22;8142;48.242;11.644;2023-10-31T09:10:23;11.40;99.90
16076;DHT22;8142;48.242;11.644;2023-10-31T09:12:49;11.40;99.90
16076;DHT22;8142;48.242;11.644;2023-10-31T09:15:15;11.30;99.90
16076;DHT22;8142;48.242;11.644;2023-10-31T09:17:41;11.40;99.90
16076;DHT22;8142;48.242;11.644;2023-10-31T09:20:07;11.40;99.90
16076;DHT22;8142;48.242;11.644;2023-10-31T09:22:34;11.40;99.90
16076;DHT22;8142;48.242;11.644;2023-10-31T09:25:00;11.40;99.90
16076;DHT22;8142;48.242;11.644;2023-10-31T09:27:26;11.40;99.90
16076;DHT22;8142;48.242;11.644;2023-10-31T09:29:51;11.40;99.90
16076;DHT22;8142;48.242;11.644;2023-10-31T09:32:18;11.40;99.90
16076;DHT22;8142;48.242;11.644;2023-10-31T09:34:44;11.40;99.90
16076;DHT22;8142;48.242;11.644;2023-10-31T09:37:10;11.50;99.90
16076;DHT22;8142;48.242;11.644;2023-10-31T09:39:36;11.60;99.90
16076;DHT22;8142;48.242;11.644;2023-10-31T09:42:05;11.50;99.90
16076;DHT22;8142;48.242;11.644;2023-10-31T09:44:31;11.50;99.90
16076;DHT22;8142;48.242;11.644;2023-10-31T09:46:58;11.50;99.90
16076;DHT22;8142;48.242;11.644;2023-10-31T09:49:23;11.60;99.90
16076;DHT22;8142;48.242;11.644;2023-10-31T09:51:50;11.50;99.90
16076;DHT22;8142;48.242;11.644;2023-10-31T09:54:17;11.50;99.90
16076;DHT22;8142;48.242;11.644;2023-10-31T09:56:43;11.50;99.90
16076;DHT22;8142;48.242;11.644;2023-10-31T09:59:09;11.50;99.90
16076;DHT22;8142;48.242;11.644;2023-10-31T10:01:36;11.60;99.90
16076;DHT22;8142;48.242;11.644;2023-10-31T10:04:03;11.60;99.90
16076;DHT22;8142;48.242;11.644;2023-10-31T10:06:29;11.60;99.90
16076;DHT22;8142;48.242;11.644;2023-10-31T10:08:55;11.60;99.90
16076;DHT22;8142;48.242;11.644;2023-10-31T10:11:22;11.60;99.90
16076;DHT22;8142;48.242;11.644;2023-10-31T10:13:48;11.60;99.90
16076;DHT22;8142;48.242;11.644;2023-10-31T10:16:30;11.60;99.90
16076;DHT22;8142;48.242;11.644;2023-10-31T10:18:57;11.70;99.90
16076;DHT22;8142;48.242;11.644;2023-10-31T10:21:53;11.60;99.90
16076;DHT22;8142;48.242;11.644;2023-10-31T10:24:21;11.70;99.90
16076;DHT22;8142;48.242;11.644;2023-10-31T10:26:49;11.70;99.90
16076;DHT22;8142;48.242;11.644;2023-10-31T10:29:17;11.80;99.90
16076;DHT22;8142;48.242;11.644;2023-10-31T10:31:44;11.70;99.90
16076;DHT22;8142;48.242;11.644;2023-10-31T10:34:16;11.80;99.90
16076;DHT22;8142;48.242;11.644;2023-10-31T10:36:47;11.80;99.90
16076;DHT22;8142;48.242;11.644;2023-10-31T10:39:19;11.80;99.90
16076;DHT22;8142;48.242;11.644;2023-10-31T10:41:48;11.90;99.90
16076;DHT22;8142;48.242;11.644;2023-10-31T10:44:17;11.80;99.90
16076;DHT22;8142;48.242;11.644;2023-10-31T10:46:50;11.80;99.90
16076;DHT22;8142;48.242;11.644;2023-10-31T10:49:23;11.90;99.90
16076;DHT22;8142;48.242;11.644;2023-10-31T10:52:35;11.90;99.90
16076;DHT22;8142;48.242;11.644;2023-10-31T10:55:00;11.90;99.90
16076;DHT22;8142;48.242;11.644;2023-10-31T11:00:05;12.00;99.90
16076;DHT22;8142;48.242;11.644;2023-10-31T11:02:36;12.00;99.90
16076;DHT22;8142;48.242;11.644;2023-10-31T11:05:05;12.00;99.90
16076;DHT22;8142;48.242;11.644;2023-10-31T11:07:34;12.00;99.90
16076;DHT22;8142;48.242;11.644;2023-10-31T11:10:01;12.10;99.90
16076;DHT22;8142;48.242;11.644;2023-10-31T11:12:30;12.10;99.90
16076;DHT22;8142;48.242;11.644;2023-10-31T11:15:01;12.10;99.90
16076;DHT22;8142;48.242;11.644;2023-10-31T11:17:41;12.10;99.90
16076;DHT22;8142;48.242;11.644;2023-10-31T11:20:12;12.10;99.90
16076;DHT22;8142;48.242;11.644;2023-10-31T11:22:42;12.20;99.90
16076;DHT22;8142;48.242;11.644;2023-10-31T11:25:11;12.20;99.90
16076;DHT22;8142;48.242;11.644;2023-10-31T11:27:37;12.20;99.90
16076;DHT22;8142;48.242;11.644;2023-10-31T11:30:40;12.20;99.90
16076;DHT22;8142;48.242;11.644;2023-10-31T11:32:59;12.20;99.90
16076;DHT22;8142;48.242;11.644;2023-10-31T11:35:30;12.20;99.90
16076;DHT22;8142;48.242;11.644;2023-10-31T11:38:02;12.30;99.90
16076;DHT22;8142;48.242;11.644;2023-10-31T11:43:12;12.30;99.90
16076;DHT22;8142;48.242;11.644;2023-10-31T11:45:42;12.30;99.90
16076;DHT22;8142;48.242;11.644;2023-10-31T11:48:11;12.30;99.90
16076;DHT22;8142;48.242;11.644;2023-10-31T11:50:38;12.40;99.90
16076;DHT22;8142;48.242;11.644;2023-10-31T11:53:08;12.40;99.90
16076;DHT22;8142;48.242;11.644;2023-10-31T11:55:47;12.40;99.90
16076;DHT22;8142;48.242;11.644;2023-10-31T11:58:17;12.50;99.90
16076;DHT22;8142;48.242;11.644;2023-10-31T12:00:45;12.50;99.90
16076;DHT22;8142;48.242;11.644;2023-10-31T12:03:11;12.50;99.90
16076;DHT22;8142;48.242;11.644;2023-10-31T12:05:37;12.50;99.90
16076;DHT22;8142;48.242;11.644;2023-10-31T12:08:05;12.50;99.90
16076;DHT22;8142;48.242;11.644;2023-10-31T12:10:33;12.50;99.90
16076;DHT22;8142;48.242;11.644;2023-10-31T12:13:00;12.50;99.90
16076;DHT22;8142;48.242;11.644;2023-10-31T12:15:26;12.60;99.90
16076;DHT22;8142;48.242;11.644;2023-10-31T12:17:52;12.50;99.90
16076;DHT22;8142;48.242;11.644;2023-10-31T12:20:17;12.60;99.90
16076;DHT22;8142;48.242;11.644;2023-10-31T12:22:43;12.60;99.90
16076;DHT22;8142;48.242;11.644;2023-10-31T12:25:11;12.60;99.90
16076;DHT22;8142;48.242;11.644;2023-10-31T12:27:45;12.50;99.90
16076;DHT22;8142;48.242;11.644;2023-10-31T12:30:20;12.60;99.90
16076;DHT22;8142;48.242;11.644;2023-10-31T12:32:55;12.50;99.90
16076;DHT22;8142;48.242;11.644;2023-10-31T12:35:26;12.60;99.90
16076;DHT22;8142;48.242;11.644;2023-10-31T12:37:53;12.60;99.90
16076;DHT22;8142;48.242;11.644;2023-10-31T12:40:21;12.70;99.90
16076;DHT22;8142;48.242;11.644;2023-10-31T12:42:48;12.60;99.90
16076;DHT22;8142;48.242;11.644;2023-10-31T12:45:15;12.90;99.90
16076;DHT22;8142;48.242;11.644;2023-10-31T12:47:43;12.70;99.90
16076;DHT22;8142;48.242;11.644;2023-10-31T12:50:09;12.70;99.90
16076;DHT22;8142;48.242;11.644;2023-10-31T12:52:50;12.70;99.90
16076;DHT22;8142;48.242;11.644;2023-10-31T12:55:18;12.70;99.90
16076;DHT22;8142;48.242;11.644;2023-10-31T12:57:47;12.70;99.90
16076;DHT22;8142;48.242;11.644;2023-10-31T13:00:16;12.70;99.90
16076;DHT22;8142;48.242;11.644;2023-10-31T13:02:45;12.70;99.90
16076;DHT22;8142;48.242;11.644;2023-10-31T13:05:15;12.80;99.90
16076;DHT22;8142;48.242;11.644;2023-10-31T13:07:51;12.80;99.90
16076;DHT22;8142;48.242;11.644;2023-10-31T13:10:19;12.80;99.90
16076;DHT22;8142;48.242;11.644;2023-10-31T13:12:48;12.80;99.90
16076;DHT22;8142;48.242;11.644;2023-10-31T13:15:19;12.80;99.90
16076;DHT22;8142;48.242;11.644;2023-10-31T13:17:45;12.80;99.90
16076;DHT22;8142;48.242;11.644;2023-10-31T13:20:13;12.80;99.90
16076;DHT22;8142;48.242;11.644;2023-10-31T13:22:41;12.80;99.90
16076;DHT22;8142;48.242;11.644;2023-10-31T13:25:12;12.80;99.90
16076;DHT22;8142;48.242;11.644;2023-10-31T13:27:41;12.80;99.90
16076;DHT22;8142;48.242;11.644;2023-10-31T13:30:10;12.70;99.90
16076;DHT22;8142;48.242;11.644;2023-10-31T13:32:37;12.60;99.90
16076;DHT22;8142;48.242;11.644;2023-10-31T13:35:04;12.60;99.90
16076;DHT22;8142;48.242;11.644;2023-10-31T13:37:31;12.60;99.90
16076;DHT22;8142;48.242;11.644;2023-10-31T13:39:56;12.50;99.90
16076;DHT22;8142;48.242;11.644;2023-10-31T13:42:22;12.50;99.90
16076;DHT22;8142;48.242;11.644;2023-10-31T13:44:48;12.50;99.90
16076;DHT22;8142;48.242;11.644;2023-10-31T13:47:15;12.40;99.90
16076;DHT22;8142;48.242;11.644;2023-10-31T13:49:42;12.40;99.90
16076;DHT22;8142;48.242;11.644;2023-10-31T13:52:10;12.40;99.90
16076;DHT22;8142;48.242;11.644;2023-10-31T13:54:36;12.40;99.90
16076;DHT22;8142;48.242;11.644;2023-10-31T13:57:02;12.40;99.90
16076;DHT22;8142;48.242;11.644;2023-10-31T13:59:28;12.50;99.90
16076;DHT22;8142;48.242;11.644;2023-10-31T14:01:54;12.40;99.90
16076;DHT22;8142;48.242;11.644;2023-10-31T14:04:19;12.30;99.90
16076;DHT22;8142;48.242;11.644;2023-10-31T14:06:46;12.40;99.90
16076;DHT22;8142;48.242;11.644;2023-10-31T14:09:12;12.30;99.90
16076;DHT22;8142;48.242;11.644;2023-10-31T14:11:40;12.40;99.90
16076;DHT22;8142;48.242;11.644;2023-10-31T14:14:07;12.40;99.90
16076;DHT22;8142;48.242;11.644;2023-10-31T14:16:37;12.40;99.90
16076;DHT22;8142;48.242;11.644;2023-10-31T14:19:07;12.40;99.90
16076;DHT22;8142;48.242;11.644;2023-10-31T14:21:36;12.40;99.90
16076;DHT22;8142;48.242;11.644;2023-10-31T14:24:03;12.50;99.90
16076;DHT22;8142;48.242;11.644;2023-10-31T14:26:30;12.40;99.90
16076;DHT22;8142;48.242;11.644;2023-10-31T14:28:56;12.40;99.90
16076;DHT22;8142;48.242;11.644;2023-10-31T14:31:22;12.50;99.90
16076;DHT22;8142;48.242;11.644;2023-10-31T14:33:48;12.50;99.90
16076;DHT22;8142;48.242;11.644;2023-10-31T14:36:15;12.50;99.90
16076;DHT22;8142;48.242;11.644;2023-10-31T14:38:42;12.40;99.90
16076;DHT22;8142;48.242;11.644;2023-10-31T14:41:09;12.40;99.90
16076;DHT22;8142;48.242;11.644;2023-10-31T14:43:35;12.40;99.90
16076;DHT22;8142;48.242;11.644;2023-10-31T14:46:01;12.40;99.90
16076;DHT22;8142;48.242;11.644;2023-10-31T14:48:28;12.40;99.90
16076;DHT22;8142;48.242;11.644;2023-10-31T14:50:54;12.40;99.90
16076;DHT22;8142;48.242;11.644;2023-10-31T14:53:20;12.40;99.90
16076;DHT22;8142;48.242;11.644;2023-10-31T14:55:46;12.40;99.90
16076;DHT22;8142;48.242;11.644;2023-10-31T14:58:12;12.40;99.90
16076;DHT22;8142;48.242;11.644;2023-10-31T15:00:38;12.40;99.90
16076;DHT22;8142;48.242;11.644;2023-10-31T15:03:05;12.40;99.90
16076;DHT22;8142;48.242;11.644;2023-10-31T15:05:31;12.30;99.90
16076;DHT22;8142;48.242;11.644;2023-10-31T15:07:57;12.40;99.90
16076;DHT22;8142;48.242;11.644;2023-10-31T15:10:24;12.40;99.90
16076;DHT22;8142;48.242;11.644;2023-10-31T15:12:51;12.50;99.90
16076;DHT22;8142;48.242;11.644;2023-10-31T15:15:17;12.30;99.90
16076;DHT22;8142;48.242;11.644;2023-10-31T15:17:43;12.30;99.90
16076;DHT22;8142;48.242;11.644;2023-10-31T15:20:09;12.40;99.90
16076;DHT22;8142;48.242;11.644;2023-10-31T15:22:41;12.30;99.90
16076;DHT22;8142;48.242;11.644;2023-10-31T15:25:09;12.30;99.90
16076;DHT22;8142;48.242;11.644;2023-10-31T15:27:35;12.30;99.90
16076;DHT22;8142;48.242;11.644;2023-10-31T15:30:00;12.30;99.90
16076;DHT22;8142;48.242;11.644;2023-10-31T15:32:26;12.30;99.90
16076;DHT22;8142;48.242;11.644;2023-10-31T15:34:52;12.30;99.90